»·PEaware :: N237SU KLLR-KSMX

N237SU :: KLLR-KSMX

FLIGHT INFORMATION

Flight Status: Arrived
Operator: Privately registered:
United States
More flights under this callsign
Pilot: Thomas C. (10835)
Aircraft: CESSNA 404 TITAN
(C404)
More flights by this aircraft type
Origin: KLLR
Destination: KSMX Santa Maria Pub/Capt Hancock
United States
More flights between these airports :: More routes between these airports
Route: +NATIC V199 BOARS V107 PYE V27 AVILA
File this flight plan on PilotEdge
Remarks:
Altitude:
(Current/Filed)
11,500ft
Speed:
(Current/Filed)
190kts
Departed: 17-Jun-17 04:32 PM
Arrived: 17-Jun-17 06:09 PM
Distance/Time
Traveled:
Not Available
Distance/Time
To Go:
Arrived

Flight Plot

Page will automatically refresh every two minutes.

Flight plan parsing failed; only flown route is shown


Map Options




Map Legend


Flown Route
Filed Route
Departure Airport
Arrival Airport
Navaid (VOR, NDB)
Fix

Horizontal Profiles

Position Reports

Time Latitude Longitude Heading Altitude Ground
Speed
17-Jun-17 16:12 39.263081 -123.752551 359 576ft 0kts
17-Jun-17 16:13 39.263171 -123.752716 243 577ft 4kts
17-Jun-17 16:14 39.261678 -123.751150 128 577ft 10kts
17-Jun-17 16:15 39.259397 -123.747354 129 576ft 13kts
17-Jun-17 16:16 39.258398 -123.745888 156 576ft 0kts
17-Jun-17 16:17 39.258398 -123.745888 156 576ft 0kts
17-Jun-17 16:18 39.258398 -123.745888 156 576ft 0kts
17-Jun-17 16:19 39.258398 -123.745888 156 576ft 0kts
17-Jun-17 16:20 39.258398 -123.745888 156 576ft 0kts
17-Jun-17 16:21 39.258398 -123.745888 156 576ft 0kts
17-Jun-17 16:22 39.258398 -123.745888 156 576ft 0kts
17-Jun-17 16:23 39.258398 -123.745888 156 576ft 0kts
17-Jun-17 16:24 39.258398 -123.745888 156 576ft 0kts
17-Jun-17 16:25 39.258398 -123.745888 156 576ft 0kts
17-Jun-17 16:26 39.258398 -123.745888 156 576ft 0kts
17-Jun-17 16:27 39.258398 -123.745888 156 576ft 0kts
17-Jun-17 16:28 39.258398 -123.745888 156 576ft 0kts
17-Jun-17 16:29 39.258398 -123.745888 156 576ft 0kts
17-Jun-17 16:30 39.258398 -123.745888 156 576ft 0kts
17-Jun-17 16:31 39.258398 -123.745888 156 576ft 0kts
17-Jun-17 16:32 39.258398 -123.745888 156 576ft 0kts
17-Jun-17 16:33 39.258398 -123.745888 156 576ft 0kts
17-Jun-17 16:34 39.258398 -123.745888 156 576ft 0kts
17-Jun-17 16:35 39.263919 -123.756909 309 919ft 124kts
17-Jun-17 16:36 39.242521 -123.758478 96 3412ft 173kts
17-Jun-17 16:37 39.222118 -123.701552 127 5796ft 181kts
17-Jun-17 16:38 39.187926 -123.655283 132 8101ft 177kts
17-Jun-17 16:39 39.154096 -123.610887 132 10221ft 174kts
17-Jun-17 16:40 39.116709 -123.561218 132 11005ft 221kts
17-Jun-17 16:41 39.074220 -123.505397 132 11072ft 214kts
17-Jun-17 16:42 39.033799 -123.452701 132 11074ft 216kts
17-Jun-17 16:43 38.991680 -123.397439 131 11074ft 216kts
17-Jun-17 16:44 38.950034 -123.342969 131 11073ft 215kts
17-Jun-17 16:45 38.907984 -123.288116 130 11074ft 214kts
17-Jun-17 16:46 38.875761 -123.246921 140 11062ft 215kts
17-Jun-17 16:47 38.817044 -123.230544 171 11056ft 219kts
17-Jun-17 16:48 38.756700 -123.220117 171 11039ft 219kts
17-Jun-17 16:49 38.696352 -123.209360 171 11022ft 219kts
17-Jun-17 16:50 38.636077 -123.198590 168 11011ft 217kts
17-Jun-17 16:51 38.576555 -123.187883 169 11001ft 216kts
17-Jun-17 16:52 38.517324 -123.177499 169 10998ft 215kts
17-Jun-17 16:53 38.458018 -123.167034 169 10998ft 215kts
17-Jun-17 16:54 38.398787 -123.156554 169 10998ft 215kts
17-Jun-17 16:55 38.339406 -123.146052 169 10999ft 215kts
17-Jun-17 16:56 38.280161 -123.135586 169 10999ft 215kts
17-Jun-17 16:57 38.223484 -123.116831 134 10999ft 207kts
17-Jun-17 16:58 38.189574 -123.059030 121 11000ft 204kts
17-Jun-17 16:59 38.156403 -123.000824 121 11001ft 203kts
17-Jun-17 17:00 38.123401 -122.942820 121 11003ft 203kts
17-Jun-17 17:01 38.090427 -122.884905 122 11007ft 202kts
17-Jun-17 17:02 38.041737 -122.849857 158 11008ft 208kts
17-Jun-17 17:03 37.986849 -122.826386 158 11008ft 208kts
17-Jun-17 17:04 37.932258 -122.802754 158 11006ft 208kts
17-Jun-17 17:04 37.886509 -122.782971 159 10991ft 210kts
17-Jun-17 17:05 37.831292 -122.759099 159 11016ft 211kts
17-Jun-17 17:06 37.775870 -122.734951 158 11041ft 210kts
17-Jun-17 17:07 37.720483 -122.710879 158 11025ft 212kts
17-Jun-17 17:09 37.655506 -122.682794 158 11025ft 212kts
17-Jun-17 17:10 37.599820 -122.658852 158 11025ft 212kts
17-Jun-17 17:11 37.544039 -122.634893 158 11025ft 211kts
17-Jun-17 17:12 37.488787 -122.611347 159 11024ft 208kts
17-Jun-17 17:13 37.434006 -122.588205 158 11025ft 208kts
17-Jun-17 17:13 37.388472 -122.568815 158 11025ft 207kts
17-Jun-17 17:14 37.333892 -122.545540 158 11026ft 207kts
17-Jun-17 17:15 37.279181 -122.522221 158 11026ft 208kts
17-Jun-17 17:16 37.224665 -122.499027 158 11026ft 208kts
17-Jun-17 17:17 37.169794 -122.475786 158 11026ft 208kts
17-Jun-17 17:18 37.114960 -122.452455 158 11026ft 208kts
17-Jun-17 17:19 37.065386 -122.417603 141 11026ft 206kts
17-Jun-17 17:20 37.018566 -122.376242 141 11015ft 206kts
17-Jun-17 17:21 36.971946 -122.334870 142 11011ft 206kts
17-Jun-17 17:22 36.925303 -122.293529 142 11010ft 206kts
17-Jun-17 17:23 36.878574 -122.252133 142 11011ft 206kts
17-Jun-17 17:24 36.831973 -122.210964 142 11017ft 205kts
17-Jun-17 17:25 36.785267 -122.169718 142 11024ft 205kts
17-Jun-17 17:26 36.738658 -122.128579 142 11022ft 205kts
17-Jun-17 17:27 36.692042 -122.087389 142 11021ft 205kts
17-Jun-17 17:28 36.645506 -122.046408 142 11024ft 205kts
17-Jun-17 17:29 36.598771 -122.005331 142 11025ft 205kts
17-Jun-17 17:30 36.552161 -121.964446 142 11025ft 205kts
17-Jun-17 17:31 36.505421 -121.923422 142 11025ft 205kts
17-Jun-17 17:32 36.458929 -121.882126 142 11025ft 205kts
17-Jun-17 17:33 36.412181 -121.841247 142 11025ft 206kts
17-Jun-17 17:34 36.365386 -121.800594 142 11026ft 206kts
17-Jun-17 17:35 36.318604 -121.760000 142 11026ft 206kts
17-Jun-17 17:36 36.271687 -121.719332 142 11026ft 206kts
17-Jun-17 17:37 36.224764 -121.678714 142 11026ft 206kts
17-Jun-17 17:38 36.177743 -121.639307 152 11090ft 205kts
17-Jun-17 17:39 36.125036 -121.611739 155 11092ft 207kts
17-Jun-17 17:40 36.071916 -121.584119 155 11089ft 207kts
17-Jun-17 17:41 36.018888 -121.556447 155 11086ft 207kts
17-Jun-17 17:42 35.965723 -121.528751 154 11075ft 207kts
17-Jun-17 17:43 35.912688 -121.501201 154 11053ft 207kts
17-Jun-17 17:44 35.860340 -121.474122 154 11023ft 207kts
17-Jun-17 17:45 35.807295 -121.446659 154 11001ft 206kts
17-Jun-17 17:46 35.754609 -121.419374 154 10997ft 205kts
17-Jun-17 17:47 35.702079 -121.392212 154 10997ft 205kts
17-Jun-17 17:48 35.649376 -121.364997 154 10997ft 205kts
17-Jun-17 17:49 35.609201 -121.319702 125 10998ft 201kts
17-Jun-17 17:50 35.574864 -121.265564 125 10998ft 201kts
17-Jun-17 17:51 35.540497 -121.211264 125 10998ft 201kts
17-Jun-17 17:52 35.506182 -121.157068 125 10999ft 201kts
17-Jun-17 17:53 35.471919 -121.103021 125 11003ft 201kts
17-Jun-17 17:54 35.437537 -121.048872 125 11007ft 201kts
17-Jun-17 17:55 35.403154 -120.994814 126 11011ft 201kts
17-Jun-17 17:56 35.369433 -120.941892 126 11015ft 200kts
17-Jun-17 17:57 35.335168 -120.888158 126 11016ft 201kts
17-Jun-17 17:58 35.300695 -120.834228 126 11016ft 201kts
17-Jun-17 17:59 35.266188 -120.780671 126 11016ft 201kts
17-Jun-17 18:00 35.225604 -120.733388 140 10495ft 209kts
17-Jun-17 18:01 35.179157 -120.688795 140 9171ft 212kts
17-Jun-17 18:02 35.135188 -120.649668 145 9003ft 186kts
17-Jun-17 18:03 35.092216 -120.615341 145 8219ft 188kts
17-Jun-17 18:04 35.048677 -120.579022 144 6168ft 192kts
17-Jun-17 18:05 35.006433 -120.543700 146 3989ft 170kts
17-Jun-17 18:06 34.966269 -120.509076 127 3935ft 186kts
17-Jun-17 18:07 34.934149 -120.459711 127 2605ft 181kts
17-Jun-17 18:08 34.905567 -120.418194 131 1382ft 138kts
17-Jun-17 18:09 34.883597 -120.415173 259 763ft 99kts
17-Jun-17 18:10 34.890906 -120.443331 309 318ft 78kts
17-Jun-17 18:11 34.897654 -120.450012 1 266ft 5kts
17-Jun-17 18:12 34.898555 -120.449554 49 265ft 9kts
17-Jun-17 18:13 34.899143 -120.448626 147 266ft 0kts

Navigation Log

Ident Type
Flight plan parsing failed, navigation log unavailable